sensor_id;sensor_type;location;lat;lon;timestamp;P1;durP1;ratioP1;P2;durP2;ratioP2
23146;SDS011;11742;53.532;-1.478;2024-03-02T00:01:23;12.20;;;5.45;;
23146;SDS011;11742;53.532;-1.478;2024-03-02T00:04:07;9.50;;;5.60;;
23146;SDS011;11742;53.532;-1.478;2024-03-02T00:06:52;10.75;;;4.68;;
23146;SDS011;11742;53.532;-1.478;2024-03-02T00:09:38;10.65;;;5.65;;
23146;SDS011;11742;53.532;-1.478;2024-03-02T00:12:23;10.48;;;5.30;;
23146;SDS011;11742;53.532;-1.478;2024-03-02T00:18:13;10.27;;;4.97;;
23146;SDS011;11742;53.532;-1.478;2024-03-02T00:21:00;11.93;;;6.03;;
23146;SDS011;11742;53.532;-1.478;2024-03-02T00:23:46;14.45;;;5.70;;
23146;SDS011;11742;53.532;-1.478;2024-03-02T00:26:35;9.05;;;4.60;;
23146;SDS011;11742;53.532;-1.478;2024-03-02T00:29:19;11.13;;;5.35;;
23146;SDS011;11742;53.532;-1.478;2024-03-02T00:32:05;8.68;;;5.22;;
23146;SDS011;11742;53.532;-1.478;2024-03-02T00:35:04;13.38;;;5.53;;
23146;SDS011;11742;53.532;-1.478;2024-03-02T00:37:48;13.25;;;5.30;;
23146;SDS011;11742;53.532;-1.478;2024-03-02T00:40:33;9.43;;;5.45;;
23146;SDS011;11742;53.532;-1.478;2024-03-02T00:46:41;46.20;;;14.18;;
23146;SDS011;11742;53.532;-1.478;2024-03-02T00:49:27;59.83;;;20.10;;
23146;SDS011;11742;53.532;-1.478;2024-03-02T00:52:12;110.05;;;32.63;;
23146;SDS011;11742;53.532;-1.478;2024-03-02T00:54:57;51.55;;;18.23;;
23146;SDS011;11742;53.532;-1.478;2024-03-02T00:57:41;36.20;;;12.95;;
23146;SDS011;11742;53.532;-1.478;2024-03-02T01:00:27;36.58;;;12.55;;
23146;SDS011;11742;53.532;-1.478;2024-03-02T01:03:11;26.88;;;10.38;;
23146;SDS011;11742;53.532;-1.478;2024-03-02T01:05:56;26.85;;;10.23;;
23146;SDS011;11742;53.532;-1.478;2024-03-02T01:08:40;30.08;;;10.10;;
23146;SDS011;11742;53.532;-1.478;2024-03-02T01:11:25;27.63;;;10.68;;
23146;SDS011;11742;53.532;-1.478;2024-03-02T01:14:09;27.25;;;10.05;;
23146;SDS011;11742;53.532;-1.478;2024-03-02T01:16:54;23.73;;;9.52;;
23146;SDS011;11742;53.532;-1.478;2024-03-02T01:19:38;25.33;;;10.00;;
23146;SDS011;11742;53.532;-1.478;2024-03-02T01:22:24;20.27;;;8.35;;
23146;SDS011;11742;53.532;-1.478;2024-03-02T01:25:08;20.23;;;7.38;;
23146;SDS011;11742;53.532;-1.478;2024-03-02T01:27:53;21.52;;;8.23;;
23146;SDS011;11742;53.532;-1.478;2024-03-02T01:30:37;17.50;;;7.55;;
23146;SDS011;11742;53.532;-1.478;2024-03-02T01:33:21;21.10;;;8.15;;
23146;SDS011;11742;53.532;-1.478;2024-03-02T01:36:05;19.63;;;7.40;;
23146;SDS011;11742;53.532;-1.478;2024-03-02T01:38:50;23.50;;;7.82;;
23146;SDS011;11742;53.532;-1.478;2024-03-02T01:41:34;21.65;;;8.00;;
23146;SDS011;11742;53.532;-1.478;2024-03-02T01:44:19;20.73;;;7.68;;
23146;SDS011;11742;53.532;-1.478;2024-03-02T01:47:02;28.33;;;8.07;;
23146;SDS011;11742;53.532;-1.478;2024-03-02T01:49:50;18.92;;;8.43;;
23146;SDS011;11742;53.532;-1.478;2024-03-02T01:52:34;16.38;;;6.72;;
23146;SDS011;11742;53.532;-1.478;2024-03-02T01:55:19;15.85;;;6.45;;
23146;SDS011;11742;53.532;-1.478;2024-03-02T01:58:04;18.15;;;6.88;;
23146;SDS011;11742;53.532;-1.478;2024-03-02T02:00:49;15.63;;;6.28;;
23146;SDS011;11742;53.532;-1.478;2024-03-02T02:03:34;19.95;;;6.57;;
23146;SDS011;11742;53.532;-1.478;2024-03-02T02:06:18;19.15;;;6.53;;
23146;SDS011;11742;53.532;-1.478;2024-03-02T02:09:02;13.10;;;6.22;;
23146;SDS011;11742;53.532;-1.478;2024-03-02T02:11:47;17.27;;;6.82;;
23146;SDS011;11742;53.532;-1.478;2024-03-02T02:14:31;15.40;;;6.80;;
23146;SDS011;11742;53.532;-1.478;2024-03-02T02:17:16;15.00;;;6.60;;
23146;SDS011;11742;53.532;-1.478;2024-03-02T02:20:01;15.45;;;6.20;;
23146;SDS011;11742;53.532;-1.478;2024-03-02T02:22:55;12.38;;;5.40;;
23146;SDS011;11742;53.532;-1.478;2024-03-02T02:25:39;16.08;;;6.05;;
23146;SDS011;11742;53.532;-1.478;2024-03-02T02:28:23;17.73;;;5.88;;
23146;SDS011;11742;53.532;-1.478;2024-03-02T02:31:08;13.93;;;6.10;;
23146;SDS011;11742;53.532;-1.478;2024-03-02T02:33:52;18.88;;;6.03;;
23146;SDS011;11742;53.532;-1.478;2024-03-02T02:36:37;13.88;;;6.03;;
23146;SDS011;11742;53.532;-1.478;2024-03-02T02:39:23;11.82;;;5.35;;
23146;SDS011;11742;53.532;-1.478;2024-03-02T02:42:07;12.70;;;6.03;;
23146;SDS011;11742;53.532;-1.478;2024-03-02T02:44:51;9.55;;;5.03;;
23146;SDS011;11742;53.532;-1.478;2024-03-02T02:47:35;12.18;;;5.65;;
23146;SDS011;11742;53.532;-1.478;2024-03-02T02:50:20;9.68;;;4.35;;
23146;SDS011;11742;53.532;-1.478;2024-03-02T02:53:04;9.75;;;4.68;;
23146;SDS011;11742;53.532;-1.478;2024-03-02T02:55:52;9.40;;;4.90;;
23146;SDS011;11742;53.532;-1.478;2024-03-02T02:58:36;11.68;;;4.65;;
23146;SDS011;11742;53.532;-1.478;2024-03-02T03:01:20;12.98;;;5.55;;
23146;SDS011;11742;53.532;-1.478;2024-03-02T03:04:04;9.65;;;4.38;;
23146;SDS011;11742;53.532;-1.478;2024-03-02T03:06:49;11.77;;;4.40;;
23146;SDS011;11742;53.532;-1.478;2024-03-02T03:09:33;10.18;;;4.30;;
23146;SDS011;11742;53.532;-1.478;2024-03-02T03:12:20;11.38;;;5.03;;
23146;SDS011;11742;53.532;-1.478;2024-03-02T03:15:05;10.52;;;4.40;;
23146;SDS011;11742;53.532;-1.478;2024-03-02T03:17:50;10.07;;;4.50;;
23146;SDS011;11742;53.532;-1.478;2024-03-02T03:20:34;8.63;;;4.45;;
23146;SDS011;11742;53.532;-1.478;2024-03-02T03:23:18;7.72;;;4.10;;
23146;SDS011;11742;53.532;-1.478;2024-03-02T03:26:02;11.38;;;4.45;;
23146;SDS011;11742;53.532;-1.478;2024-03-02T03:28:47;7.60;;;4.10;;
23146;SDS011;11742;53.532;-1.478;2024-03-02T03:31:32;8.85;;;4.68;;
23146;SDS011;11742;53.532;-1.478;2024-03-02T03:34:16;8.90;;;3.78;;
23146;SDS011;11742;53.532;-1.478;2024-03-02T03:37:00;10.63;;;4.82;;
23146;SDS011;11742;53.532;-1.478;2024-03-02T03:39:45;7.57;;;4.20;;
23146;SDS011;11742;53.532;-1.478;2024-03-02T03:42:30;8.35;;;3.97;;
23146;SDS011;11742;53.532;-1.478;2024-03-02T03:45:14;7.80;;;4.30;;
23146;SDS011;11742;53.532;-1.478;2024-03-02T03:47:58;8.88;;;4.30;;
23146;SDS011;11742;53.532;-1.478;2024-03-02T03:50:42;8.07;;;4.10;;
23146;SDS011;11742;53.532;-1.478;2024-03-02T03:53:26;9.60;;;4.30;;
23146;SDS011;11742;53.532;-1.478;2024-03-02T03:56:10;6.60;;;3.45;;
23146;SDS011;11742;53.532;-1.478;2024-03-02T03:58:55;7.85;;;4.10;;
23146;SDS011;11742;53.532;-1.478;2024-03-02T04:01:39;8.00;;;4.07;;
23146;SDS011;11742;53.532;-1.478;2024-03-02T04:04:23;7.68;;;3.83;;
23146;SDS011;11742;53.532;-1.478;2024-03-02T04:07:07;7.90;;;4.10;;
23146;SDS011;11742;53.532;-1.478;2024-03-02T04:09:51;7.25;;;3.97;;
23146;SDS011;11742;53.532;-1.478;2024-03-02T04:12:36;7.55;;;4.13;;
23146;SDS011;11742;53.532;-1.478;2024-03-02T04:15:20;7.65;;;3.95;;
23146;SDS011;11742;53.532;-1.478;2024-03-02T04:18:06;6.30;;;3.83;;
23146;SDS011;11742;53.532;-1.478;2024-03-02T04:20:51;8.23;;;3.65;;
23146;SDS011;11742;53.532;-1.478;2024-03-02T04:23:35;9.10;;;4.32;;
23146;SDS011;11742;53.532;-1.478;2024-03-02T04:26:19;7.63;;;3.85;;
23146;SDS011;11742;53.532;-1.478;2024-03-02T04:29:06;5.35;;;3.63;;
23146;SDS011;11742;53.532;-1.478;2024-03-02T04:31:50;7.78;;;3.85;;
23146;SDS011;11742;53.532;-1.478;2024-03-02T04:34:34;7.32;;;3.60;;
23146;SDS011;11742;53.532;-1.478;2024-03-02T04:37:18;5.30;;;3.47;;
23146;SDS011;11742;53.532;-1.478;2024-03-02T04:40:02;7.50;;;4.22;;
23146;SDS011;11742;53.532;-1.478;2024-03-02T04:42:46;7.03;;;3.55;;
23146;SDS011;11742;53.532;-1.478;2024-03-02T04:45:31;5.05;;;3.50;;
23146;SDS011;11742;53.532;-1.478;2024-03-02T04:48:15;5.55;;;3.47;;
23146;SDS011;11742;53.532;-1.478;2024-03-02T04:50:59;7.13;;;3.63;;
23146;SDS011;11742;53.532;-1.478;2024-03-02T04:53:44;9.23;;;3.47;;
23146;SDS011;11742;53.532;-1.478;2024-03-02T04:56:28;7.85;;;4.05;;
23146;SDS011;11742;53.532;-1.478;2024-03-02T04:59:16;7.28;;;3.65;;
23146;SDS011;11742;53.532;-1.478;2024-03-02T05:02:01;5.88;;;3.60;;
23146;SDS011;11742;53.532;-1.478;2024-03-02T05:04:45;6.55;;;3.42;;
23146;SDS011;11742;53.532;-1.478;2024-03-02T05:07:31;8.32;;;3.70;;
23146;SDS011;11742;53.532;-1.478;2024-03-02T05:10:15;6.88;;;3.40;;
23146;SDS011;11742;53.532;-1.478;2024-03-02T05:13:00;6.85;;;3.50;;
23146;SDS011;11742;53.532;-1.478;2024-03-02T05:15:44;5.68;;;3.08;;
23146;SDS011;11742;53.532;-1.478;2024-03-02T05:18:28;6.53;;;3.78;;
23146;SDS011;11742;53.532;-1.478;2024-03-02T05:21:12;9.68;;;4.28;;
23146;SDS011;11742;53.532;-1.478;2024-03-02T05:23:56;5.55;;;3.35;;
23146;SDS011;11742;53.532;-1.478;2024-03-02T05:26:40;6.85;;;3.63;;
23146;SDS011;11742;53.532;-1.478;2024-03-02T05:29:24;5.40;;;3.40;;
23146;SDS011;11742;53.532;-1.478;2024-03-02T05:32:09;7.65;;;3.70;;
23146;SDS011;11742;53.532;-1.478;2024-03-02T05:34:53;7.90;;;4.00;;
23146;SDS011;11742;53.532;-1.478;2024-03-02T05:37:37;4.75;;;3.40;;
23146;SDS011;11742;53.532;-1.478;2024-03-02T05:40:21;6.47;;;3.80;;
23146;SDS011;11742;53.532;-1.478;2024-03-02T05:43:05;5.60;;;3.33;;
23146;SDS011;11742;53.532;-1.478;2024-03-02T05:45:50;6.10;;;3.65;;
23146;SDS011;11742;53.532;-1.478;2024-03-02T05:48:34;5.55;;;3.20;;
23146;SDS011;11742;53.532;-1.478;2024-03-02T05:51:18;5.85;;;3.55;;
23146;SDS011;11742;53.532;-1.478;2024-03-02T05:54:02;6.28;;;3.50;;
23146;SDS011;11742;53.532;-1.478;2024-03-02T05:56:46;5.65;;;3.30;;
23146;SDS011;11742;53.532;-1.478;2024-03-02T05:59:31;6.93;;;3.67;;
23146;SDS011;11742;53.532;-1.478;2024-03-02T06:02:15;5.90;;;3.70;;
23146;SDS011;11742;53.532;-1.478;2024-03-02T06:04:59;7.72;;;3.60;;
23146;SDS011;11742;53.532;-1.478;2024-03-02T06:07:43;6.75;;;4.07;;
23146;SDS011;11742;53.532;-1.478;2024-03-02T06:10:28;5.93;;;3.53;;
23146;SDS011;11742;53.532;-1.478;2024-03-02T06:13:12;6.97;;;3.40;;
23146;SDS011;11742;53.532;-1.478;2024-03-02T06:15:57;5.88;;;3.15;;
23146;SDS011;11742;53.532;-1.478;2024-03-02T06:18:41;4.97;;;3.30;;
23146;SDS011;11742;53.532;-1.478;2024-03-02T06:21:25;5.75;;;3.35;;
23146;SDS011;11742;53.532;-1.478;2024-03-02T06:24:10;4.95;;;3.35;;
23146;SDS011;11742;53.532;-1.478;2024-03-02T06:26:54;8.55;;;3.70;;
23146;SDS011;11742;53.532;-1.478;2024-03-02T06:29:39;4.18;;;3.20;;
23146;SDS011;11742;53.532;-1.478;2024-03-02T06:32:23;5.80;;;3.88;;
23146;SDS011;11742;53.532;-1.478;2024-03-02T06:35:08;5.82;;;3.10;;
23146;SDS011;11742;53.532;-1.478;2024-03-02T06:37:53;5.30;;;3.30;;
23146;SDS011;11742;53.532;-1.478;2024-03-02T06:40:37;5.10;;;3.50;;
23146;SDS011;11742;53.532;-1.478;2024-03-02T06:43:23;7.05;;;3.65;;
23146;SDS011;11742;53.532;-1.478;2024-03-02T06:46:08;5.78;;;3.25;;
23146;SDS011;11742;53.532;-1.478;2024-03-02T06:48:53;4.68;;;3.10;;
23146;SDS011;11742;53.532;-1.478;2024-03-02T06:51:37;6.40;;;3.25;;
23146;SDS011;11742;53.532;-1.478;2024-03-02T06:54:21;9.55;;;4.07;;
23146;SDS011;11742;53.532;-1.478;2024-03-02T06:57:05;7.28;;;3.80;;
23146;SDS011;11742;53.532;-1.478;2024-03-02T06:59:49;6.72;;;3.38;;
23146;SDS011;11742;53.532;-1.478;2024-03-02T07:02:35;6.55;;;3.58;;
23146;SDS011;11742;53.532;-1.478;2024-03-02T07:05:20;5.95;;;3.65;;
23146;SDS011;11742;53.532;-1.478;2024-03-02T07:08:04;5.97;;;3.38;;
23146;SDS011;11742;53.532;-1.478;2024-03-02T07:10:49;5.30;;;3.45;;
23146;SDS011;11742;53.532;-1.478;2024-03-02T07:13:34;5.70;;;3.45;;
23146;SDS011;11742;53.532;-1.478;2024-03-02T07:16:19;5.25;;;3.08;;
23146;SDS011;11742;53.532;-1.478;2024-03-02T07:19:13;4.75;;;3.15;;
23146;SDS011;11742;53.532;-1.478;2024-03-02T07:21:57;6.45;;;3.45;;
23146;SDS011;11742;53.532;-1.478;2024-03-02T07:24:42;6.10;;;3.30;;
23146;SDS011;11742;53.532;-1.478;2024-03-02T07:27:27;7.47;;;4.28;;
23146;SDS011;11742;53.532;-1.478;2024-03-02T07:30:14;7.60;;;3.17;;
23146;SDS011;11742;53.532;-1.478;2024-03-02T07:33:02;7.15;;;3.58;;
23146;SDS011;11742;53.532;-1.478;2024-03-02T07:35:46;6.10;;;3.78;;
23146;SDS011;11742;53.532;-1.478;2024-03-02T07:38:31;5.88;;;3.40;;
23146;SDS011;11742;53.532;-1.478;2024-03-02T07:41:17;4.80;;;2.90;;
23146;SDS011;11742;53.532;-1.478;2024-03-02T07:44:01;6.40;;;3.10;;
23146;SDS011;11742;53.532;-1.478;2024-03-02T07:46:46;4.45;;;3.10;;
23146;SDS011;11742;53.532;-1.478;2024-03-02T07:49:30;6.70;;;3.42;;
23146;SDS011;11742;53.532;-1.478;2024-03-02T07:52:15;5.38;;;2.80;;
23146;SDS011;11742;53.532;-1.478;2024-03-02T07:54:59;5.30;;;3.20;;
23146;SDS011;11742;53.532;-1.478;2024-03-02T07:57:43;4.47;;;2.85;;
23146;SDS011;11742;53.532;-1.478;2024-03-02T08:00:28;4.03;;;3.08;;
23146;SDS011;11742;53.532;-1.478;2024-03-02T08:03:13;5.88;;;3.15;;
23146;SDS011;11742;53.532;-1.478;2024-03-02T08:05:58;6.47;;;3.55;;
23146;SDS011;11742;53.532;-1.478;2024-03-02T08:08:42;4.70;;;3.40;;
23146;SDS011;11742;53.532;-1.478;2024-03-02T08:11:27;5.38;;;3.20;;
23146;SDS011;11742;53.532;-1.478;2024-03-02T08:14:12;6.05;;;3.40;;
23146;SDS011;11742;53.532;-1.478;2024-03-02T08:16:57;5.32;;;3.08;;
23146;SDS011;11742;53.532;-1.478;2024-03-02T08:19:41;4.70;;;2.75;;
23146;SDS011;11742;53.532;-1.478;2024-03-02T08:22:26;6.30;;;3.38;;
23146;SDS011;11742;53.532;-1.478;2024-03-02T08:25:11;4.35;;;3.00;;
23146;SDS011;11742;53.532;-1.478;2024-03-02T08:27:55;7.63;;;3.03;;
23146;SDS011;11742;53.532;-1.478;2024-03-02T08:30:39;5.88;;;3.38;;
23146;SDS011;11742;53.532;-1.478;2024-03-02T08:33:23;4.68;;;2.90;;
23146;SDS011;11742;53.532;-1.478;2024-03-02T08:36:07;4.57;;;2.65;;
23146;SDS011;11742;53.532;-1.478;2024-03-02T08:38:53;5.43;;;3.10;;
23146;SDS011;11742;53.532;-1.478;2024-03-02T08:41:37;3.75;;;2.78;;
23146;SDS011;11742;53.532;-1.478;2024-03-02T08:44:22;3.95;;;2.80;;
23146;SDS011;11742;53.532;-1.478;2024-03-02T08:47:06;2.97;;;2.25;;
23146;SDS011;11742;53.532;-1.478;2024-03-02T08:49:50;3.45;;;2.58;;
23146;SDS011;11742;53.532;-1.478;2024-03-02T08:52:34;4.38;;;2.50;;
23146;SDS011;11742;53.532;-1.478;2024-03-02T08:55:19;6.25;;;2.40;;
23146;SDS011;11742;53.532;-1.478;2024-03-02T08:58:04;5.35;;;2.33;;
23146;SDS011;11742;53.532;-1.478;2024-03-02T09:00:47;4.03;;;2.42;;
23146;SDS011;11742;53.532;-1.478;2024-03-02T09:03:32;4.70;;;2.13;;
23146;SDS011;11742;53.532;-1.478;2024-03-02T09:06:17;3.58;;;1.98;;
23146;SDS011;11742;53.532;-1.478;2024-03-02T09:09:03;3.50;;;2.30;;
23146;SDS011;11742;53.532;-1.478;2024-03-02T09:11:47;2.90;;;2.08;;
23146;SDS011;11742;53.532;-1.478;2024-03-02T09:14:32;3.38;;;1.98;;
23146;SDS011;11742;53.532;-1.478;2024-03-02T09:17:17;3.35;;;1.85;;
23146;SDS011;11742;53.532;-1.478;2024-03-02T09:20:01;1.77;;;1.42;;
23146;SDS011;11742;53.532;-1.478;2024-03-02T09:22:47;3.88;;;1.90;;
23146;SDS011;11742;53.532;-1.478;2024-03-02T09:25:32;2.42;;;1.67;;
23146;SDS011;11742;53.532;-1.478;2024-03-02T09:28:16;3.67;;;1.90;;
23146;SDS011;11742;53.532;-1.478;2024-03-02T09:31:00;2.38;;;1.75;;
23146;SDS011;11742;53.532;-1.478;2024-03-02T09:33:45;3.33;;;1.70;;
23146;SDS011;11742;53.532;-1.478;2024-03-02T09:36:29;3.88;;;1.98;;
23146;SDS011;11742;53.532;-1.478;2024-03-02T09:39:15;1.98;;;1.55;;
23146;SDS011;11742;53.532;-1.478;2024-03-02T09:41:59;1.50;;;1.30;;
23146;SDS011;11742;53.532;-1.478;2024-03-02T09:44:44;3.22;;;1.25;;
23146;SDS011;11742;53.532;-1.478;2024-03-02T09:47:29;3.05;;;1.50;;
23146;SDS011;11742;53.532;-1.478;2024-03-02T09:50:13;3.22;;;1.45;;
23146;SDS011;11742;53.532;-1.478;2024-03-02T09:52:58;2.05;;;1.10;;
23146;SDS011;11742;53.532;-1.478;2024-03-02T09:55:46;2.70;;;1.48;;
23146;SDS011;11742;53.532;-1.478;2024-03-02T09:58:30;3.63;;;1.50;;
23146;SDS011;11742;53.532;-1.478;2024-03-02T10:01:14;3.95;;;1.83;;
23146;SDS011;11742;53.532;-1.478;2024-03-02T10:03:59;2.22;;;1.38;;
23146;SDS011;11742;53.532;-1.478;2024-03-02T10:06:44;2.00;;;1.45;;
23146;SDS011;11742;53.532;-1.478;2024-03-02T10:09:28;1.98;;;1.50;;
23146;SDS011;11742;53.532;-1.478;2024-03-02T10:12:14;4.30;;;1.23;;
23146;SDS011;11742;53.532;-1.478;2024-03-02T10:15:03;2.20;;;1.50;;
23146;SDS011;11742;53.532;-1.478;2024-03-02T10:17:51;2.80;;;1.50;;
23146;SDS011;11742;53.532;-1.478;2024-03-02T10:20:35;3.80;;;1.90;;
23146;SDS011;11742;53.532;-1.478;2024-03-02T10:23:19;5.07;;;1.80;;
23146;SDS011;11742;53.532;-1.478;2024-03-02T10:26:09;5.75;;;2.05;;
23146;SDS011;11742;53.532;-1.478;2024-03-02T10:29:02;9.38;;;3.25;;
23146;SDS011;11742;53.532;-1.478;2024-03-02T10:31:46;6.30;;;2.85;;
23146;SDS011;11742;53.532;-1.478;2024-03-02T10:34:30;7.30;;;2.75;;
23146;SDS011;11742;53.532;-1.478;2024-03-02T10:37:15;2.75;;;2.30;;
23146;SDS011;11742;53.532;-1.478;2024-03-02T10:40:04;5.80;;;2.70;;
23146;SDS011;11742;53.532;-1.478;2024-03-02T10:42:49;4.53;;;2.42;;
23146;SDS011;11742;53.532;-1.478;2024-03-02T10:45:37;6.35;;;2.63;;
23146;SDS011;11742;53.532;-1.478;2024-03-02T10:48:22;4.45;;;2.33;;
23146;SDS011;11742;53.532;-1.478;2024-03-02T10:51:09;4.32;;;2.35;;
23146;SDS011;11742;53.532;-1.478;2024-03-02T10:53:53;3.35;;;2.70;;
23146;SDS011;11742;53.532;-1.478;2024-03-02T10:56:41;5.32;;;2.70;;
23146;SDS011;11742;53.532;-1.478;2024-03-02T10:59:34;3.55;;;2.40;;
23146;SDS011;11742;53.532;-1.478;2024-03-02T11:02:21;4.18;;;2.58;;
23146;SDS011;11742;53.532;-1.478;2024-03-02T11:05:06;5.93;;;2.90;;
23146;SDS011;11742;53.532;-1.478;2024-03-02T11:08:02;3.38;;;2.08;;
23146;SDS011;11742;53.532;-1.478;2024-03-02T11:10:51;4.00;;;2.40;;
23146;SDS011;11742;53.532;-1.478;2024-03-02T11:13:42;5.95;;;2.25;;
23146;SDS011;11742;53.532;-1.478;2024-03-02T11:16:34;2.88;;;2.20;;
23146;SDS011;11742;53.532;-1.478;2024-03-02T11:19:22;5.20;;;2.40;;
23146;SDS011;11742;53.532;-1.478;2024-03-02T11:22:08;2.88;;;1.90;;
23146;SDS011;11742;53.532;-1.478;2024-03-02T11:24:53;3.85;;;2.00;;
23146;SDS011;11742;53.532;-1.478;2024-03-02T11:27:59;4.72;;;2.08;;
23146;SDS011;11742;53.532;-1.478;2024-03-02T11:30:48;3.15;;;2.00;;
23146;SDS011;11742;53.532;-1.478;2024-03-02T11:33:33;5.68;;;1.63;;
23146;SDS011;11742;53.532;-1.478;2024-03-02T11:36:17;2.85;;;1.77;;
23146;SDS011;11742;53.532;-1.478;2024-03-02T11:39:02;2.15;;;1.50;;
23146;SDS011;11742;53.532;-1.478;2024-03-02T11:41:47;4.18;;;1.55;;
23146;SDS011;11742;53.532;-1.478;2024-03-02T11:44:35;2.90;;;1.73;;
23146;SDS011;11742;53.532;-1.478;2024-03-02T11:47:21;2.97;;;1.52;;
23146;SDS011;11742;53.532;-1.478;2024-03-02T11:50:05;8.20;;;2.28;;
23146;SDS011;11742;53.532;-1.478;2024-03-02T11:52:50;5.53;;;2.08;;
23146;SDS011;11742;53.532;-1.478;2024-03-02T11:55:35;3.15;;;1.45;;
23146;SDS011;11742;53.532;-1.478;2024-03-02T11:58:20;5.63;;;1.75;;
23146;SDS011;11742;53.532;-1.478;2024-03-02T12:01:07;3.58;;;1.70;;
23146;SDS011;11742;53.532;-1.478;2024-03-02T12:03:52;3.83;;;1.50;;
23146;SDS011;11742;53.532;-1.478;2024-03-02T12:06:38;4.72;;;1.75;;
23146;SDS011;11742;53.532;-1.478;2024-03-02T12:09:22;3.40;;;1.70;;
23146;SDS011;11742;53.532;-1.478;2024-03-02T12:12:07;5.63;;;2.10;;
23146;SDS011;11742;53.532;-1.478;2024-03-02T12:14:53;7.78;;;1.92;;
23146;SDS011;11742;53.532;-1.478;2024-03-02T12:17:39;6.43;;;1.85;;
23146;SDS011;11742;53.532;-1.478;2024-03-02T12:20:24;4.35;;;1.83;;
23146;SDS011;11742;53.532;-1.478;2024-03-02T12:23:09;7.97;;;2.10;;
23146;SDS011;11742;53.532;-1.478;2024-03-02T12:25:53;4.88;;;2.17;;
23146;SDS011;11742;53.532;-1.478;2024-03-02T12:28:38;7.72;;;2.78;;
23146;SDS011;11742;53.532;-1.478;2024-03-02T12:31:22;5.05;;;2.80;;
23146;SDS011;11742;53.532;-1.478;2024-03-02T12:34:07;6.40;;;2.42;;
23146;SDS011;11742;53.532;-1.478;2024-03-02T12:36:52;3.28;;;2.03;;
23146;SDS011;11742;53.532;-1.478;2024-03-02T12:39:36;7.13;;;2.28;;
23146;SDS011;11742;53.532;-1.478;2024-03-02T12:42:21;7.05;;;2.53;;
23146;SDS011;11742;53.532;-1.478;2024-03-02T12:45:08;5.47;;;1.85;;
23146;SDS011;11742;53.532;-1.478;2024-03-02T12:47:52;8.38;;;2.40;;
23146;SDS011;11742;53.532;-1.478;2024-03-02T12:50:37;8.70;;;2.25;;
23146;SDS011;11742;53.532;-1.478;2024-03-02T12:53:21;3.58;;;1.88;;
23146;SDS011;11742;53.532;-1.478;2024-03-02T12:56:05;3.47;;;1.90;;
23146;SDS011;11742;53.532;-1.478;2024-03-02T12:58:55;2.78;;;1.67;;
23146;SDS011;11742;53.532;-1.478;2024-03-02T13:01:49;2.83;;;1.40;;
23146;SDS011;11742;53.532;-1.478;2024-03-02T13:04:37;3.60;;;1.38;;
23146;SDS011;11742;53.532;-1.478;2024-03-02T13:07:22;2.28;;;1.25;;
23146;SDS011;11742;53.532;-1.478;2024-03-02T13:10:08;3.75;;;1.40;;
23146;SDS011;11742;53.532;-1.478;2024-03-02T13:12:52;4.00;;;1.15;;
23146;SDS011;11742;53.532;-1.478;2024-03-02T13:15:36;2.97;;;1.17;;
23146;SDS011;11742;53.532;-1.478;2024-03-02T13:18:22;4.80;;;1.05;;
23146;SDS011;11742;53.532;-1.478;2024-03-02T13:21:07;2.72;;;1.00;;
23146;SDS011;11742;53.532;-1.478;2024-03-02T13:23:52;2.80;;;1.05;;
23146;SDS011;11742;53.532;-1.478;2024-03-02T13:26:36;3.03;;;1.08;;
23146;SDS011;11742;53.532;-1.478;2024-03-02T13:29:21;2.92;;;1.25;;
23146;SDS011;11742;53.532;-1.478;2024-03-02T13:32:06;1.95;;;1.10;;
23146;SDS011;11742;53.532;-1.478;2024-03-02T13:34:50;3.58;;;1.00;;
23146;SDS011;11742;53.532;-1.478;2024-03-02T13:37:35;1.88;;;1.00;;
23146;SDS011;11742;53.532;-1.478;2024-03-02T13:40:19;3.47;;;1.45;;
23146;SDS011;11742;53.532;-1.478;2024-03-02T13:43:03;2.83;;;0.95;;
23146;SDS011;11742;53.532;-1.478;2024-03-02T13:45:48;3.72;;;1.27;;
23146;SDS011;11742;53.532;-1.478;2024-03-02T13:48:33;5.03;;;1.00;;
23146;SDS011;11742;53.532;-1.478;2024-03-02T13:51:17;3.40;;;1.30;;
23146;SDS011;11742;53.532;-1.478;2024-03-02T13:54:01;2.35;;;1.02;;
23146;SDS011;11742;53.532;-1.478;2024-03-02T13:56:46;2.92;;;1.10;;
23146;SDS011;11742;53.532;-1.478;2024-03-02T13:59:30;3.03;;;1.27;;
23146;SDS011;11742;53.532;-1.478;2024-03-02T14:02:15;3.03;;;1.00;;
23146;SDS011;11742;53.532;-1.478;2024-03-02T14:04:59;2.92;;;1.05;;
23146;SDS011;11742;53.532;-1.478;2024-03-02T14:07:43;5.22;;;1.92;;
23146;SDS011;11742;53.532;-1.478;2024-03-02T14:10:27;1.80;;;1.02;;
23146;SDS011;11742;53.532;-1.478;2024-03-02T14:13:12;1.20;;;1.00;;
23146;SDS011;11742;53.532;-1.478;2024-03-02T14:15:56;2.08;;;0.90;;
23146;SDS011;11742;53.532;-1.478;2024-03-02T14:18:42;2.72;;;1.02;;
23146;SDS011;11742;53.532;-1.478;2024-03-02T14:21:26;1.75;;;1.00;;
23146;SDS011;11742;53.532;-1.478;2024-03-02T14:24:10;1.15;;;0.85;;
23146;SDS011;11742;53.532;-1.478;2024-03-02T14:26:54;1.95;;;0.85;;
23146;SDS011;11742;53.532;-1.478;2024-03-02T14:29:42;3.45;;;1.73;;
23146;SDS011;11742;53.532;-1.478;2024-03-02T14:32:27;2.05;;;0.90;;
23146;SDS011;11742;53.532;-1.478;2024-03-02T14:35:11;1.42;;;0.73;;
23146;SDS011;11742;53.532;-1.478;2024-03-02T14:37:55;1.42;;;0.80;;
23146;SDS011;11742;53.532;-1.478;2024-03-02T14:40:41;0.95;;;0.65;;
23146;SDS011;11742;53.532;-1.478;2024-03-02T14:43:25;0.98;;;0.73;;
23146;SDS011;11742;53.532;-1.478;2024-03-02T14:46:10;2.00;;;0.55;;
23146;SDS011;11742;53.532;-1.478;2024-03-02T14:48:55;0.90;;;0.68;;
23146;SDS011;11742;53.532;-1.478;2024-03-02T14:51:40;0.60;;;0.60;;
23146;SDS011;11742;53.532;-1.478;2024-03-02T14:54:24;0.47;;;0.47;;
23146;SDS011;11742;53.532;-1.478;2024-03-02T14:57:08;1.10;;;0.68;;
23146;SDS011;11742;53.532;-1.478;2024-03-02T14:59:52;0.68;;;0.57;;
23146;SDS011;11742;53.532;-1.478;2024-03-02T15:02:38;0.50;;;0.50;;
23146;SDS011;11742;53.532;-1.478;2024-03-02T15:05:22;0.63;;;0.63;;
23146;SDS011;11742;53.532;-1.478;2024-03-02T15:08:06;0.50;;;0.50;;
23146;SDS011;11742;53.532;-1.478;2024-03-02T15:10:51;1.85;;;0.50;;
23146;SDS011;11742;53.532;-1.478;2024-03-02T15:13:36;1.35;;;0.60;;
23146;SDS011;11742;53.532;-1.478;2024-03-02T15:16:20;0.55;;;0.55;;
23146;SDS011;11742;53.532;-1.478;2024-03-02T15:19:05;1.27;;;0.50;;
23146;SDS011;11742;53.532;-1.478;2024-03-02T15:21:49;0.40;;;0.40;;
23146;SDS011;11742;53.532;-1.478;2024-03-02T15:24:33;1.75;;;0.43;;
23146;SDS011;11742;53.532;-1.478;2024-03-02T15:27:17;1.00;;;0.50;;
23146;SDS011;11742;53.532;-1.478;2024-03-02T15:30:02;2.30;;;0.60;;
23146;SDS011;11742;53.532;-1.478;2024-03-02T15:32:46;0.63;;;0.60;;
23146;SDS011;11742;53.532;-1.478;2024-03-02T15:35:31;0.65;;;0.60;;
23146;SDS011;11742;53.532;-1.478;2024-03-02T15:38:15;0.98;;;0.40;;
23146;SDS011;11742;53.532;-1.478;2024-03-02T15:41:01;0.68;;;0.52;;
23146;SDS011;11742;53.532;-1.478;2024-03-02T15:43:46;0.52;;;0.52;;
23146;SDS011;11742;53.532;-1.478;2024-03-02T15:46:30;0.68;;;0.63;;
23146;SDS011;11742;53.532;-1.478;2024-03-02T15:49:14;0.93;;;0.50;;
23146;SDS011;11742;53.532;-1.478;2024-03-02T15:51:59;0.50;;;0.50;;
23146;SDS011;11742;53.532;-1.478;2024-03-02T15:54:47;1.77;;;0.52;;
23146;SDS011;11742;53.532;-1.478;2024-03-02T15:57:35;0.77;;;0.55;;
23146;SDS011;11742;53.532;-1.478;2024-03-02T16:00:19;1.15;;;0.60;;
23146;SDS011;11742;53.532;-1.478;2024-03-02T16:03:04;1.75;;;0.60;;
23146;SDS011;11742;53.532;-1.478;2024-03-02T16:05:48;0.40;;;0.40;;
23146;SDS011;11742;53.532;-1.478;2024-03-02T16:08:33;0.68;;;0.52;;
23146;SDS011;11742;53.532;-1.478;2024-03-02T16:11:18;1.98;;;0.68;;
23146;SDS011;11742;53.532;-1.478;2024-03-02T16:14:02;0.65;;;0.60;;
23146;SDS011;11742;53.532;-1.478;2024-03-02T16:16:46;0.60;;;0.60;;
23146;SDS011;11742;53.532;-1.478;2024-03-02T16:19:30;1.63;;;0.70;;
23146;SDS011;11742;53.532;-1.478;2024-03-02T16:22:15;0.93;;;0.70;;